Time;durP1;ratioP1;P1;durP2;ratioP2;P2;SDS_P1;SDS_P2;PMS_P1;PMS_P2;Temp;Humidity;BMP_temperature;BMP_pressure;BME280_temperature;BME280_humidity;BME280_pressure;Samples;Min_cycle;Max_cycle;Signal;HPM_P1;HPM_P2
2022/11/22 00:00:39;;;;;;;2.10;1.60;;;;;;;17.60;35.79;100621.09;4750965;30;20119;-87
2022/11/22 00:03:04;;;;;;;2.97;1.65;;;;;;;17.61;35.82;100623.56;4721513;30;20511;-87
2022/11/22 00:05:30;;;;;;;2.15;1.95;;;;;;;17.62;35.93;100629.78;4736245;30;20040;-87
2022/11/22 00:07:56;;;;;;;3.35;1.60;;;;;;;17.62;35.78;100635.19;4736349;30;20032;-87
2022/11/22 00:10:22;;;;;;;2.10;1.80;;;;;;;17.60;35.88;100626.50;4736122;30;20032;-87
2022/11/22 00:12:48;;;;;;;2.70;1.90;;;;;;;17.61;35.94;100625.47;4736137;30;20040;-86
2022/11/22 00:15:13;;;;;;;2.92;2.20;;;;;;;17.62;35.94;100627.09;4735988;30;20107;-87
2022/11/22 00:17:39;;;;;;;2.17;1.63;;;;;;;17.60;35.84;100632.72;4735906;30;20071;-87
2022/11/22 00:20:10;;;;;;;2.63;1.70;;;;;;;17.59;35.93;100622.13;4735826;30;20032;-87
2022/11/22 00:22:36;;;;;;;3.22;1.90;;;;;;;17.60;35.86;100626.50;4736288;30;20084;-87
2022/11/22 00:25:02;;;;;;;2.08;1.70;;;;;;;17.60;35.84;100626.50;4736114;30;20046;-87
2022/11/22 00:27:28;;;;;;;2.13;1.92;;;;;;;17.60;36.03;100629.19;4721410;30;20039;-87
2022/11/22 00:29:53;;;;;;;1.92;1.73;;;;;;;17.60;35.94;100637.31;4735894;30;20119;-87
2022/11/22 00:32:19;;;;;;;2.78;2.03;;;;;;;17.59;36.08;100627.53;4735878;30;20103;-87
2022/11/22 00:34:44;;;;;;;2.47;1.65;;;;;;;17.58;36.16;100625.91;4750450;30;20053;-86
2022/11/22 00:37:13;;;;;;;1.95;1.52;;;;;;;17.59;35.91;100619.44;4735781;30;20339;-87
2022/11/22 00:39:39;;;;;;;2.08;1.77;;;;;;;17.59;35.85;100622.97;4736285;30;20036;-87
2022/11/22 00:42:10;;;;;;;2.67;1.73;;;;;;;17.61;35.98;100628.16;4720972;30;20126;-87
2022/11/22 00:44:39;;;;;;;1.70;1.60;;;;;;;17.59;35.88;100620.28;4750469;30;20420;-87
2022/11/22 00:47:04;;;;;;;2.00;1.80;;;;;;;17.59;35.95;100622.13;4750213;30;20028;-87
2022/11/22 00:49:30;;;;;;;1.90;1.75;;;;;;;17.59;36.01;100620.28;4735656;30;20196;-87
2022/11/22 00:51:56;;;;;;;2.13;1.85;;;;;;;17.61;35.87;100617.34;4750157;30;20103;-86
2022/11/22 00:54:23;;;;;;;2.83;1.70;;;;;;;17.62;35.86;100624.38;4750023;30;20123;-87
2022/11/22 00:56:48;;;;;;;2.10;1.67;;;;;;;17.59;35.97;100616.72;4721162;30;20479;-87
2022/11/22 00:59:14;;;;;;;2.05;1.70;;;;;;;17.62;36.00;100627.09;4720937;30;20118;-87
2022/11/22 01:01:40;;;;;;;2.17;1.77;;;;;;;17.61;35.84;100611.94;4749958;30;20583;-87
2022/11/22 01:04:08;;;;;;;2.45;2.10;;;;;;;17.62;36.04;100614.38;4720747;30;20040;-86
2022/11/22 01:06:34;;;;;;;2.03;1.58;;;;;;;17.58;35.83;100612.41;4750113;30;20028;-86
2022/11/22 01:09:00;;;;;;;3.03;1.88;;;;;;;17.60;35.83;100615.69;4735525;30;20509;-87
2022/11/22 01:11:25;;;;;;;1.75;1.42;;;;;;;17.59;35.91;100606.75;4735355;30;20032;-87
2022/11/22 01:13:51;;;;;;;1.75;1.60;;;;;;;17.61;35.85;100607.34;4751280;30;20042;-87
2022/11/22 01:16:17;;;;;;;2.20;1.90;;;;;;;17.61;35.82;100615.47;4749895;30;20032;-87
2022/11/22 01:18:42;;;;;;;2.17;1.77;;;;;;;17.59;35.94;100603.22;4750014;30;20048;-87
2022/11/22 01:21:10;;;;;;;1.73;1.63;;;;;;;17.61;35.91;100611.94;4749913;30;20400;-87
2022/11/22 01:23:36;;;;;;;1.60;1.40;;;;;;;17.63;36.12;100596.31;4735552;30;20500;-87
2022/11/22 01:26:01;;;;;;;1.60;1.50;;;;;;;17.63;35.83;100604.44;4735287;30;20040;-87
2022/11/22 01:28:27;;;;;;;2.00;1.80;;;;;;;17.61;35.78;100607.34;4735406;30;20564;-86
2022/11/22 01:30:53;;;;;;;1.88;1.73;;;;;;;17.62;36.09;100602.78;4749955;30;20099;-87
2022/11/22 01:33:19;;;;;;;1.80;1.70;;;;;;;17.59;35.72;100592.41;4737255;30;20051;-87
2022/11/22 01:35:44;;;;;;;2.63;1.95;;;;;;;17.61;36.09;100599.25;4738178;30;20031;-87
2022/11/22 01:38:13;;;;;;;1.70;1.40;;;;;;;17.62;35.87;100597.38;4737835;30;20388;-87
2022/11/22 01:40:39;;;;;;;2.30;1.77;;;;;;;17.63;35.90;100597.13;4738793;30;20043;-87
2022/11/22 01:43:10;;;;;;;2.47;1.50;;;;;;;17.62;36.08;100603.59;4723619;30;20035;-87
2022/11/22 01:45:47;;;;;;;1.67;1.45;;;;;;;17.63;35.84;100599.03;4738508;30;20452;-87
2022/11/22 01:48:34;;;;;;;3.00;1.88;;;;;;;17.64;35.98;100595.25;4738671;30;20039;-87
2022/11/22 01:51:04;;;;;;;2.58;1.70;;;;;;;17.61;36.02;100599.25;4741203;30;20096;-87
2022/11/22 01:53:35;;;;;;;1.65;1.35;;;;;;;17.65;35.84;100607.72;4741868;30;20101;-87
2022/11/22 01:56:01;;;;;;;1.75;1.60;;;;;;;17.62;35.99;100591.97;4741991;30;20077;-87
2022/11/22 01:58:27;;;;;;;1.70;1.50;;;;;;;17.63;35.92;100582.81;4741593;30;20089;-87
2022/11/22 02:00:53;;;;;;;1.40;1.30;;;;;;;17.61;35.90;100590.31;4741417;30;20031;-87
2022/11/22 02:03:24;;;;;;;2.00;1.80;;;;;;;17.64;35.84;100587.13;4755841;30;20113;-87
2022/11/22 02:05:50;;;;;;;2.08;1.70;;;;;;;17.62;35.90;100586.56;4741680;30;20120;-87
2022/11/22 02:08:42;;;;;;;1.55;1.45;;;;;;;17.61;35.96;100590.31;4755827;30;20114;-87
2022/11/22 02:11:11;;;;;;;1.70;1.40;;;;;;;17.63;35.82;100589.03;4757581;30;20050;-87
2022/11/22 02:13:38;;;;;;;1.85;1.58;;;;;;;17.62;35.93;100575.75;4756100;30;20035;-87
2022/11/22 02:16:08;;;;;;;2.38;1.67;;;;;;;17.63;35.85;100582.81;4741129;30;20040;-87
2022/11/22 02:18:35;;;;;;;1.58;1.42;;;;;;;17.63;35.79;100589.03;4756376;30;20411;-87
2022/11/22 02:21:00;;;;;;;2.30;1.80;;;;;;;17.63;35.76;100588.22;4755627;30;20036;-86
2022/11/22 02:23:35;;;;;;;1.95;1.60;;;;;;;17.63;35.74;100593.63;4740626;30;20088;-87
2022/11/22 02:26:01;;;;;;;1.70;1.40;;;;;;;17.60;36.03;100603.00;4755855;30;20039;-86
2022/11/22 02:28:28;;;;;;;1.75;1.63;;;;;;;17.63;35.88;100586.31;4740638;30;20158;-87
2022/11/22 02:30:53;;;;;;;2.10;1.70;;;;;;;17.63;35.79;100594.44;4740871;30;20096;-87
2022/11/22 02:33:19;;;;;;;1.83;1.42;;;;;;;17.63;35.87;100599.03;4755338;30;20118;-86
2022/11/22 02:35:45;;;;;;;1.63;1.48;;;;;;;17.61;35.84;100601.13;4740866;30;20035;-87
2022/11/22 02:38:16;;;;;;;1.60;1.50;;;;;;;17.62;35.90;100597.38;4740606;30;20054;-87
2022/11/22 02:40:52;;;;;;;2.83;1.75;;;;;;;17.61;35.87;100598.44;4740786;30;20125;-87
2022/11/22 02:43:22;;;;;;;1.83;1.50;;;;;;;17.62;35.90;100603.59;4755117;30;20028;-87
2022/11/22 02:45:48;;;;;;;1.92;1.50;;;;;;;17.62;35.88;100594.66;4741033;30;20040;-86
2022/11/22 02:48:15;;;;;;;1.70;1.58;;;;;;;17.63;35.89;100601.72;4740476;30;20039;-86
2022/11/22 02:50:44;;;;;;;2.88;1.80;;;;;;;17.62;35.75;100589.25;4740689;30;20116;-87
2022/11/22 02:53:10;;;;;;;1.65;1.55;;;;;;;17.64;35.91;100596.09;4740726;30;20119;-87
2022/11/22 02:55:35;;;;;;;1.58;1.48;;;;;;;17.60;35.83;100588.66;4755158;30;20504;-87
2022/11/22 02:58:01;;;;;;;1.63;1.52;;;;;;;17.64;35.89;100592.53;4754859;30;20032;-87
2022/11/22 03:00:27;;;;;;;1.80;1.60;;;;;;;17.63;35.83;100590.91;4739633;30;20119;-86
2022/11/22 03:02:52;;;;;;;2.45;1.70;;;;;;;17.64;35.83;100595.25;4754723;30;20065;-87
2022/11/22 03:05:18;;;;;;;1.55;1.38;;;;;;;17.61;36.00;100591.13;4755203;30;20099;-87
2022/11/22 03:07:44;;;;;;;2.10;1.70;;;;;;;17.64;35.81;100589.84;4754963;30;20056;-87
2022/11/22 03:10:09;;;;;;;2.05;1.70;;;;;;;17.61;35.91;100593.84;4754744;30;20055;-87
2022/11/22 03:12:35;;;;;;;1.60;1.50;;;;;;;17.62;35.85;100602.78;4754832;30;20042;-87
2022/11/22 03:15:01;;;;;;;1.60;1.50;;;;;;;17.62;35.82;100597.38;4754929;30;20043;-87
2022/11/22 03:17:26;;;;;;;1.85;1.48;;;;;;;17.63;35.80;100601.72;4739902;30;20035;-87
2022/11/22 03:19:52;;;;;;;1.58;1.48;;;;;;;17.64;35.88;100603.34;4740112;30;20036;-87
2022/11/22 03:22:18;;;;;;;1.95;1.40;;;;;;;17.63;35.82;100604.44;4754527;30;20189;-87
2022/11/22 03:24:43;;;;;;;2.40;1.80;;;;;;;17.63;35.97;100599.03;4739998;30;20024;-86
2022/11/22 03:27:16;;;;;;;2.17;1.60;;;;;;;17.63;35.99;100601.72;4740082;30;20039;-87
2022/11/22 03:29:41;;;;;;;2.33;1.60;;;;;;;17.63;35.79;100594.44;4741374;30;20453;-86
2022/11/22 03:32:07;;;;;;;2.40;1.70;;;;;;;17.64;35.58;100596.09;4739944;30;20111;-87
2022/11/22 03:34:33;;;;;;;1.85;1.67;;;;;;;17.62;35.80;100592.78;4751354;30;20059;-87
2022/11/22 03:36:58;;;;;;;2.92;1.80;;;;;;;17.61;35.85;100590.31;4751583;30;20033;-87
2022/11/22 03:39:24;;;;;;;1.92;1.63;;;;;;;17.62;35.80;100595.47;4736917;30;20039;-87
2022/11/22 03:41:49;;;;;;;2.20;1.70;;;;;;;17.63;35.80;100588.22;4722136;30;20414;-87
2022/11/22 03:44:15;;;;;;;1.75;1.55;;;;;;;17.62;35.79;100586.56;4736561;30;20043;-87
2022/11/22 03:46:41;;;;;;;1.77;1.67;;;;;;;17.62;35.93;100587.38;4736700;30;20057;-87
2022/11/22 03:49:06;;;;;;;1.77;1.50;;;;;;;17.61;35.78;100579.50;4751508;30;20420;-87
2022/11/22 03:51:38;;;;;;;2.10;1.90;;;;;;;17.60;35.78;100575.16;4736577;30;20119;-87
2022/11/22 03:54:07;;;;;;;1.67;1.48;;;;;;;17.63;35.77;100589.03;4736560;30;20035;-87
2022/11/22 03:56:32;;;;;;;2.38;1.77;;;;;;;17.64;35.83;100584.44;4736494;30;20028;-87
2022/11/22 03:58:58;;;;;;;2.03;1.70;;;;;;;17.60;35.79;100575.97;4751092;30;20131;-87
2022/11/22 04:01:24;;;;;;;1.92;1.60;;;;;;;17.60;35.77;100575.97;4736627;30;20036;-87
2022/11/22 04:03:51;;;;;;;1.73;1.50;;;;;;;17.61;35.87;100584.91;4736522;30;20425;-87
2022/11/22 04:06:20;;;;;;;2.05;1.70;;;;;;;17.64;35.82;100587.13;4736915;30;20029;-87
2022/11/22 04:08:45;;;;;;;1.90;1.50;;;;;;;17.63;35.90;100599.03;4736123;30;20404;-87
2022/11/22 04:11:11;;;;;;;1.60;1.35;;;;;;;17.62;36.00;100589.25;4751099;30;20039;-86
2022/11/22 04:16:25;;;;;;;2.17;1.70;;;;;;;17.62;35.83;100591.97;4734273;30;20067;-87
2022/11/22 04:18:53;;;;;;;1.73;1.50;;;;;;;17.59;35.73;100587.00;4735985;30;20063;-87
2022/11/22 04:21:34;;;;;;;2.13;1.75;;;;;;;17.62;35.76;100594.66;4736174;30;20036;-87
2022/11/22 04:26:54;;;;;;;2.20;1.80;;;;;;;17.62;35.88;100589.25;4738751;30;20050;-87
2022/11/22 04:29:20;;;;;;;2.20;1.70;;;;;;;17.60;35.79;100589.47;4751871;30;20401;-87
2022/11/22 04:34:30;;;;;;;1.98;1.52;;;;;;;17.60;35.92;100588.66;4750422;30;20119;-87
2022/11/22 04:36:56;;;;;;;1.95;1.73;;;;;;;17.60;35.93;100588.66;4750179;30;20032;-87
2022/11/22 04:39:22;;;;;;;1.92;1.60;;;;;;;17.62;35.87;100589.25;4735542;30;20115;-86
2022/11/22 04:44:39;;;;;;;2.22;1.77;;;;;;;17.58;35.85;100586.19;4735719;30;20503;-87
2022/11/22 04:44:41;;;;;;;1.90;1.60;;;;;;;17.62;35.87;100586.56;4750396;30;20160;-86
2022/11/22 04:47:57;;;;;;;1.90;1.70;;;;;;;17.62;35.79;100581.16;4737063;30;20035;-87
2022/11/22 04:50:02;;;;;;;2.17;1.75;;;;;;;17.61;35.79;100579.50;4738268;30;20036;-87
2022/11/22 04:55:14;;;;;;;3.50;1.75;;;;;;;17.61;35.84;100576.81;4738191;30;20092;-87
2022/11/22 04:57:40;;;;;;;2.05;1.73;;;;;;;17.59;35.87;100574.34;4751537;30;20062;-87
2022/11/22 05:00:06;;;;;;;2.00;1.67;;;;;;;17.61;35.83;100577.63;4735713;30;20489;-87
2022/11/22 05:02:32;;;;;;;1.80;1.58;;;;;;;17.62;35.72;100576.56;4735649;30;20440;-87
2022/11/22 05:04:57;;;;;;;1.83;1.63;;;;;;;17.62;35.71;100573.03;4735684;30;20036;-87
2022/11/22 05:07:23;;;;;;;2.42;1.73;;;;;;;17.62;35.90;100578.44;4749995;30;20044;-87
2022/11/22 05:09:48;;;;;;;1.80;1.70;;;;;;;17.60;35.69;100569.75;4735233;30;20107;-87
2022/11/22 05:12:14;;;;;;;1.98;1.77;;;;;;;17.62;35.71;100567.63;4750005;30;20107;-87
2022/11/22 05:14:40;;;;;;;2.05;1.67;;;;;;;17.59;35.85;100571.63;4735314;30;20074;-87
2022/11/22 05:17:05;;;;;;;1.63;1.52;;;;;;;17.63;35.70;100572.00;4749927;30;20043;-87
2022/11/22 05:19:31;;;;;;;2.75;1.67;;;;;;;17.61;35.67;100571.41;4735258;30;20503;-87
2022/11/22 05:21:56;;;;;;;1.77;1.40;;;;;;;17.63;35.79;100570.09;4735509;30;20146;-87
2022/11/22 05:24:22;;;;;;;1.40;1.30;;;;;;;17.61;35.80;100574.13;4734864;30;20032;-87
2022/11/22 05:26:47;;;;;;;3.70;1.50;;;;;;;17.62;35.72;100573.84;4735082;30;20384;-87
2022/11/22 05:29:13;;;;;;;1.77;1.40;;;;;;;17.62;35.85;100570.34;4749994;30;20119;-87
2022/11/22 05:31:39;;;;;;;1.77;1.45;;;;;;;17.65;35.73;100575.28;4750032;30;20056;-87
2022/11/22 05:34:08;;;;;;;2.10;1.90;;;;;;;17.63;35.57;100582.81;4734894;30;20055;-87
2022/11/22 05:36:34;;;;;;;2.00;1.77;;;;;;;17.63;35.55;100572.81;4735142;30;20039;-87
2022/11/22 05:38:59;;;;;;;2.17;1.83;;;;;;;17.58;35.79;100569.16;4735187;30;20032;-86
2022/11/22 05:41:25;;;;;;;2.13;1.73;;;;;;;17.62;35.83;100570.34;4735074;30;20024;-87
2022/11/22 05:43:54;;;;;;;1.45;1.30;;;;;;;17.62;35.68;100575.75;4735174;30;20032;-87
2022/11/22 05:46:21;;;;;;;1.95;1.58;;;;;;;17.64;35.77;100568.22;4734923;30;20491;-87
2022/11/22 05:48:46;;;;;;;2.05;1.85;;;;;;;17.63;35.74;100577.41;4735178;30;20048;-87
2022/11/22 05:51:13;;;;;;;2.70;1.73;;;;;;;17.61;35.83;100571.41;4734518;30;20096;-87
2022/11/22 05:53:39;;;;;;;2.50;1.90;;;;;;;17.63;35.83;100566.59;4734585;30;20051;-87
2022/11/22 05:56:19;;;;;;;2.10;1.60;;;;;;;17.62;35.76;100565.75;4734464;30;20028;-87
2022/11/22 05:58:45;;;;;;;1.77;1.60;;;;;;;17.64;35.71;100565.53;4735453;30;20028;-87
2022/11/22 06:01:15;;;;;;;2.08;1.70;;;;;;;17.65;35.67;100569.88;4734825;30;20382;-87
2022/11/22 06:03:41;;;;;;;1.75;1.63;;;;;;;17.63;35.86;100567.41;4735158;30;20044;-87
2022/11/22 06:06:07;;;;;;;1.90;1.70;;;;;;;17.62;35.97;100567.63;4735022;30;20036;-87
2022/11/22 06:08:34;;;;;;;2.15;1.52;;;;;;;17.62;35.69;100578.44;4720498;30;20047;-87
2022/11/22 06:11:06;;;;;;;1.92;1.73;;;;;;;17.63;35.71;100583.63;4735277;30;20032;-87
2022/11/22 06:13:36;;;;;;;2.05;1.73;;;;;;;17.64;35.66;100582.59;4735501;30;20035;-87
2022/11/22 06:16:08;;;;;;;1.60;1.45;;;;;;;17.62;35.89;100587.38;4735012;30;20541;-87
2022/11/22 06:18:34;;;;;;;2.10;1.70;;;;;;;17.61;35.70;100580.34;4735762;30;20450;-87
2022/11/22 06:21:01;;;;;;;2.08;1.63;;;;;;;17.63;35.70;100588.22;4749581;30;20151;-87
2022/11/22 06:23:27;;;;;;;2.10;1.75;;;;;;;17.63;35.71;100589.03;4734765;30;20374;-87
2022/11/22 06:26:00;;;;;;;1.67;1.55;;;;;;;17.65;35.76;100591.50;4735062;30;20117;-87
2022/11/22 06:28:27;;;;;;;1.88;1.63;;;;;;;17.62;35.82;100594.66;4734885;30;20092;-87
2022/11/22 06:30:53;;;;;;;1.55;1.42;;;;;;;17.64;35.69;100595.25;4749360;30;20043;-87
2022/11/22 06:33:19;;;;;;;2.38;1.63;;;;;;;17.63;35.90;100605.25;4722169;30;20048;-87
2022/11/22 06:35:44;;;;;;;1.73;1.60;;;;;;;17.64;35.63;100606.06;4753071;30;20396;-87
2022/11/22 06:38:10;;;;;;;2.58;1.95;;;;;;;17.64;35.63;100600.66;4740557;30;20031;-87
2022/11/22 06:40:36;;;;;;;2.28;1.75;;;;;;;17.65;35.78;100613.13;4740685;30;20111;-87
2022/11/22 06:43:01;;;;;;;1.95;1.60;;;;;;;17.63;35.79;100607.13;4740455;30;20035;-87
2022/11/22 06:45:27;;;;;;;1.75;1.48;;;;;;;17.64;35.71;100606.91;4740387;30;20071;-87
2022/11/22 06:47:52;;;;;;;1.50;1.40;;;;;;;17.64;35.91;100611.47;4771060;30;20093;-87
2022/11/22 06:50:18;;;;;;;1.85;1.63;;;;;;;17.63;35.71;100607.13;4740714;30;20103;-87
2022/11/22 06:52:50;;;;;;;1.67;1.55;;;;;;;17.66;35.83;100625.59;4740514;30;20059;-87
2022/11/22 06:55:16;;;;;;;2.80;1.80;;;;;;;17.65;35.75;100613.13;4740618;30;20032;-87
2022/11/22 06:57:41;;;;;;;3.58;1.90;;;;;;;17.65;35.93;100613.13;4771163;30;20035;-87
2022/11/22 07:00:10;;;;;;;1.60;1.50;;;;;;;17.63;35.81;100618.75;4740448;30;20086;-87
2022/11/22 07:02:36;;;;;;;1.63;1.30;;;;;;;17.64;35.85;100616.88;4740766;30;20084;-87
2022/11/22 07:05:01;;;;;;;1.70;1.50;;;;;;;17.67;35.94;100616.41;4740510;30;20037;-87
2022/11/22 07:07:27;;;;;;;1.70;1.50;;;;;;;17.64;35.81;100609.59;4755153;30;20031;-87
2022/11/22 07:09:53;;;;;;;1.77;1.52;;;;;;;17.64;36.02;100606.06;4725758;30;20032;-87
2022/11/22 07:12:18;;;;;;;1.60;1.50;;;;;;;17.63;35.97;100610.66;4725598;30;20068;-87
2022/11/22 07:14:46;;;;;;;1.48;1.38;;;;;;;17.67;35.76;100612.91;4754911;30;20108;-86
2022/11/22 07:17:12;;;;;;;1.70;1.58;;;;;;;17.64;35.88;100612.31;4725615;30;20063;-87
2022/11/22 07:19:37;;;;;;;1.75;1.55;;;;;;;17.64;35.84;100616.88;4740061;30;20492;-87
2022/11/22 07:22:03;;;;;;;2.13;1.67;;;;;;;17.66;35.89;100614.78;4739913;30;20074;-87
2022/11/22 07:24:29;;;;;;;2.03;1.80;;;;;;;17.63;35.85;100610.66;4739085;30;20042;-87
2022/11/22 07:26:55;;;;;;;1.85;1.42;;;;;;;17.66;35.87;100614.78;4754801;30;20028;-87
2022/11/22 07:29:20;;;;;;;2.05;1.50;;;;;;;17.63;35.84;100607.13;4740013;30;20054;-87
2022/11/22 07:31:46;;;;;;;1.90;1.60;;;;;;;17.64;36.01;100615.00;4754479;30;20066;-87
2022/11/22 07:34:12;;;;;;;2.08;1.85;;;;;;;17.63;35.91;100599.03;4736825;30;20051;-87
2022/11/22 07:36:37;;;;;;;2.03;1.60;;;;;;;17.64;35.96;100601.50;4751492;30;20035;-87
2022/11/22 07:39:03;;;;;;;2.08;1.50;;;;;;;17.65;35.77;100607.72;4736758;30;20043;-87
2022/11/22 07:41:28;;;;;;;1.83;1.60;;;;;;;17.63;35.89;100602.53;4736803;30;20519;-87
2022/11/22 07:43:54;;;;;;;2.05;1.65;;;;;;;17.65;35.71;100605.00;4751330;30;20043;-87
2022/11/22 07:46:30;;;;;;;2.47;1.70;;;;;;;17.65;35.84;100608.53;4736323;30;20032;-87
2022/11/22 07:48:56;;;;;;;1.52;1.42;;;;;;;17.65;36.01;100610.41;4736528;30;20032;-87
2022/11/22 07:51:22;;;;;;;2.15;1.88;;;;;;;17.60;35.95;100607.59;4736538;30;20377;-87
2022/11/22 07:53:48;;;;;;;1.60;1.50;;;;;;;17.66;35.81;100614.78;4751378;30;20062;-87
2022/11/22 07:56:14;;;;;;;1.92;1.50;;;;;;;17.66;35.92;100617.50;4721744;30;20366;-87
2022/11/22 07:58:39;;;;;;;1.77;1.58;;;;;;;17.65;35.84;100615.81;4751296;30;20400;-87
2022/11/22 08:01:10;;;;;;;2.33;1.80;;;;;;;17.66;35.83;100625.59;4736399;30;20063;-87
2022/11/22 08:03:35;;;;;;;1.75;1.55;;;;;;;17.65;35.82;100619.34;4736711;30;20115;-87
2022/11/22 08:06:02;;;;;;;1.30;1.20;;;;;;;17.66;36.00;100631.00;4736435;30;20099;-87
2022/11/22 08:08:28;;;;;;;1.70;1.38;;;;;;;17.66;35.96;100628.31;4736477;30;20040;-87
2022/11/22 08:10:53;;;;;;;1.75;1.65;;;;;;;17.66;35.88;100636.41;4736274;30;20039;-87
2022/11/22 08:13:19;;;;;;;1.88;1.73;;;;;;;17.65;35.76;100637.44;4736358;30;20036;-87
2022/11/22 08:15:47;;;;;;;1.85;1.30;;;;;;;17.67;36.00;100639.94;4736298;30;20030;-87
2022/11/22 08:18:18;;;;;;;1.60;1.35;;;;;;;17.65;35.95;100640.97;4751082;30;20479;-87
2022/11/22 08:20:44;;;;;;;2.22;1.90;;;;;;;17.65;36.01;100638.25;4737051;30;20036;-87
2022/11/22 08:23:09;;;;;;;1.60;1.50;;;;;;;17.69;35.90;100641.34;4736209;30;20058;-87
2022/11/22 08:25:35;;;;;;;2.63;1.70;;;;;;;17.65;35.96;100634.75;4721585;30;20040;-87
2022/11/22 08:28:01;;;;;;;1.85;1.60;;;;;;;17.67;35.92;100637.22;4736208;30;20040;-87
2022/11/22 08:30:26;;;;;;;1.60;1.50;;;;;;;17.66;35.87;100636.41;4750694;30;20086;-87
2022/11/22 08:32:55;;;;;;;1.77;1.30;;;;;;;17.69;36.12;100641.34;4736017;30;20078;-87
2022/11/22 08:35:21;;;;;;;1.65;1.45;;;;;;;17.67;36.11;100645.34;4750705;30;20454;-87
2022/11/22 08:37:47;;;;;;;1.70;1.60;;;;;;;17.68;35.98;100650.50;4736048;30;20038;-87
2022/11/22 08:40:12;;;;;;;1.92;1.73;;;;;;;17.68;36.19;100645.09;4735880;30;20032;-87
2022/11/22 08:42:41;;;;;;;1.63;1.52;;;;;;;17.68;35.91;100647.81;4735750;30;20040;-87
2022/11/22 08:45:07;;;;;;;1.58;1.35;;;;;;;17.69;35.87;100641.34;4735965;30;20047;-87
2022/11/22 08:47:32;;;;;;;1.40;1.30;;;;;;;17.68;35.97;100642.41;4735805;30;20086;-87
2022/11/22 08:49:58;;;;;;;1.75;1.50;;;;;;;17.66;35.97;100636.41;4735530;30;20090;-87
2022/11/22 08:52:26;;;;;;;1.60;1.45;;;;;;;17.67;35.91;100643.44;4735520;30;20047;-87
2022/11/22 08:54:52;;;;;;;1.65;1.52;;;;;;;17.68;35.97;100642.41;4750123;30;20473;-87
2022/11/22 08:57:17;;;;;;;2.55;1.30;;;;;;;17.67;35.91;100648.84;4735300;30;20039;-87
2022/11/22 08:59:43;;;;;;;2.10;1.65;;;;;;;17.68;35.97;100650.50;4734969;30;20169;-87
2022/11/22 09:02:09;;;;;;;1.77;1.50;;;;;;;17.67;36.05;100642.63;4735421;30;20067;-87
2022/11/22 09:04:35;;;;;;;1.38;1.25;;;;;;;17.69;36.01;100651.31;4735391;30;20066;-87
2022/11/22 09:07:00;;;;;;;1.50;1.33;;;;;;;17.69;36.11;100652.16;4735790;30;20176;-87
2022/11/22 09:09:26;;;;;;;1.75;1.30;;;;;;;17.69;35.98;100651.31;4750113;30;20500;-87
2022/11/22 09:11:52;;;;;;;1.70;1.40;;;;;;;17.69;36.01;100648.63;4750131;30;20059;-87
2022/11/22 09:14:17;;;;;;;1.67;1.55;;;;;;;17.67;35.91;100648.03;4749985;30;20481;-87
2022/11/22 09:16:46;;;;;;;1.50;1.40;;;;;;;17.69;36.19;100641.34;4735521;30;20380;-86
2022/11/22 09:19:12;;;;;;;1.73;1.38;;;;;;;17.67;36.07;100640.75;4735456;30;20496;-87
2022/11/22 09:21:37;;;;;;;1.52;1.30;;;;;;;17.70;35.97;100639.47;4735556;30;20036;-87
2022/11/22 09:24:03;;;;;;;1.58;1.48;;;;;;;17.70;35.95;100636.78;4735309;30;20124;-87
2022/11/22 09:26:29;;;;;;;1.60;1.50;;;;;;;17.69;36.01;100641.34;4749997;30;20028;-87
2022/11/22 09:28:55;;;;;;;1.95;1.75;;;;;;;17.70;36.16;100640.28;4735258;30;20036;-87
2022/11/22 09:31:21;;;;;;;1.58;1.48;;;;;;;17.71;35.95;100638.41;4735364;30;20036;-87
2022/11/22 09:33:48;;;;;;;1.50;1.35;;;;;;;17.68;36.17;100628.88;4735143;30;20056;-87
2022/11/22 09:36:25;;;;;;;1.60;1.20;;;;;;;17.68;35.98;100639.69;4735075;30;20039;-87
2022/11/22 09:38:57;;;;;;;1.67;1.33;;;;;;;17.67;36.16;100632.63;4735373;30;20540;-87
2022/11/22 09:41:41;;;;;;;1.33;1.23;;;;;;;17.71;36.13;100638.41;4750952;30;20059;-87
2022/11/22 09:44:22;;;;;;;1.50;1.40;;;;;;;17.65;36.26;100640.16;4750945;30;20040;-87
2022/11/22 09:46:51;;;;;;;1.42;1.27;;;;;;;17.72;36.09;100648.19;4749816;30;20180;-87
2022/11/22 09:49:56;;;;;;;1.80;1.50;;;;;;;17.72;35.99;100654.41;4750882;30;20052;-87
2022/11/22 09:52:38;;;;;;;1.40;1.30;;;;;;;17.69;36.09;100641.34;4743344;30;20040;-87
2022/11/22 09:55:45;;;;;;;1.52;1.42;;;;;;;17.68;36.06;100645.09;4735288;30;20047;-87
2022/11/22 09:58:35;;;;;;;1.63;1.40;;;;;;;17.68;36.19;100644.25;4746954;30;20052;-87
2022/11/22 10:01:07;;;;;;;1.73;1.40;;;;;;;17.70;36.15;100647.59;4735975;30;20068;-87
2022/11/22 10:03:59;;;;;;;1.45;1.35;;;;;;;17.64;36.13;100638.50;4735578;30;20036;-87
2022/11/22 10:06:31;;;;;;;1.40;1.30;;;;;;;17.71;35.94;100650.03;4735856;30;20094;-87
2022/11/22 10:09:23;;;;;;;1.52;1.40;;;;;;;17.71;36.11;100644.63;4749656;30;20099;-87
2022/11/22 10:11:53;;;;;;;1.27;1.17;;;;;;;17.71;36.12;100644.63;4752183;30;20158;-87
2022/11/22 10:14:31;;;;;;;1.30;1.17;;;;;;;17.75;35.99;100650.44;4738581;30;20024;-87
2022/11/22 10:17:02;;;;;;;1.50;1.40;;;;;;;17.70;36.13;100640.28;4752945;30;20047;-87
2022/11/22 10:19:34;;;;;;;1.25;1.15;;;;;;;17.75;36.06;100651.25;4738785;30;20453;-86
2022/11/22 10:22:00;;;;;;;1.30;1.20;;;;;;;17.72;36.35;100640.06;4738159;30;20473;-87
2022/11/22 10:24:26;;;;;;;1.50;1.40;;;;;;;17.74;36.03;100643.34;4738126;30;20028;-86
2022/11/22 10:26:52;;;;;;;1.50;1.30;;;;;;;17.74;36.23;100648.75;4737890;30;20028;-87
2022/11/22 10:29:38;;;;;;;1.50;1.30;;;;;;;17.75;36.13;100648.53;4737987;30;20040;-87
2022/11/22 10:32:15;;;;;;;1.83;1.30;;;;;;;17.76;36.12;100644.75;4738019;30;20047;-87
2022/11/22 10:35:09;;;;;;;1.33;1.20;;;;;;;17.76;36.02;100647.47;4755533;30;20059;-87
2022/11/22 10:37:49;;;;;;;1.48;1.30;;;;;;;17.74;36.06;100641.47;4740739;30;20138;-87
2022/11/22 10:40:27;;;;;;;1.40;1.25;;;;;;;17.76;36.01;100643.94;4756272;30;20040;-87
2022/11/22 10:42:58;;;;;;;1.38;1.23;;;;;;;17.76;36.06;100642.06;4755339;30;20052;-87
2022/11/22 10:45:30;;;;;;;1.90;1.20;;;;;;;17.77;36.04;100648.31;4771525;30;20178;-87
2022/11/22 10:48:17;;;;;;;1.65;1.42;;;;;;;17.77;36.23;100641.03;4740840;30;20032;-87
2022/11/22 10:51:07;;;;;;;1.35;1.25;;;;;;;17.78;36.06;100639.13;4755292;30;20403;-87
2022/11/22 10:54:11;;;;;;;1.17;1.08;;;;;;;17.77;36.27;100643.72;4755381;30;20048;-87
2022/11/22 10:56:49;;;;;;;1.27;1.17;;;;;;;17.78;36.26;100645.38;4771249;30;20031;-87
2022/11/22 10:59:27;;;;;;;1.38;1.27;;;;;;;17.79;35.84;100647.03;4741003;30;20038;-87
2022/11/22 11:02:13;;;;;;;1.20;1.10;;;;;;;17.79;36.11;100638.09;4755025;30;20463;-87
2022/11/22 11:04:39;;;;;;;1.40;1.30;;;;;;;17.78;36.13;100645.38;4755103;30;20119;-87
2022/11/22 11:07:05;;;;;;;1.40;1.30;;;;;;;17.77;36.06;100635.63;4754879;30;20032;-87
2022/11/22 11:09:44;;;;;;;1.35;1.17;;;;;;;17.76;36.17;100636.66;4740382;30;20038;-87
2022/11/22 11:12:21;;;;;;;1.13;1.02;;;;;;;17.79;36.11;100641.63;4741082;30;20412;-87
2022/11/22 11:14:48;;;;;;;1.15;1.10;;;;;;;17.80;36.15;100640.56;4740558;30;20107;-87
2022/11/22 11:17:28;;;;;;;1.42;1.10;;;;;;;17.81;36.21;100633.28;4740000;30;20031;-87
2022/11/22 11:19:54;;;;;;;1.05;1.00;;;;;;;17.80;36.00;100639.75;4741408;30;20071;-87
2022/11/22 11:22:24;;;;;;;1.05;0.95;;;;;;;17.80;36.08;100629.75;4739603;30;20071;-87
2022/11/22 11:24:49;;;;;;;1.27;1.17;;;;;;;17.79;36.10;100630.81;4740279;30;20034;-87
2022/11/22 11:27:16;;;;;;;1.10;1.00;;;;;;;17.81;36.05;100628.69;4739971;30;20040;-87
2022/11/22 11:29:45;;;;;;;1.48;0.90;;;;;;;17.81;36.09;100636.78;4739932;30;20068;-87
2022/11/22 11:32:12;;;;;;;1.25;1.15;;;;;;;17.82;36.10;100646.56;4740414;30;20081;-87
2022/11/22 11:34:40;;;;;;;1.33;1.20;;;;;;;17.84;35.97;100641.75;4754586;30;20214;-87
2022/11/22 11:37:09;;;;;;;1.23;1.10;;;;;;;17.83;36.06;100642.81;4754989;30;20051;-87
2022/11/22 11:39:35;;;;;;;1.27;1.17;;;;;;;17.82;36.17;100643.84;4740197;30;20442;-87
2022/11/22 11:42:19;;;;;;;1.20;1.10;;;;;;;17.83;36.12;100645.53;4739932;30;20059;-87